createdAt,value
2018-12-15T00:01:09.044Z,44.40
2018-12-15T00:03:37.592Z,44.40
2018-12-15T00:06:06.462Z,44.40
2018-12-15T00:08:35.036Z,44.40
2018-12-15T00:11:03.613Z,44.50
2018-12-15T00:13:32.202Z,44.50
2018-12-15T00:16:00.768Z,44.50
2018-12-15T00:18:29.367Z,44.50
2018-12-15T00:20:57.940Z,44.50
2018-12-15T00:23:26.526Z,44.50
2018-12-15T00:25:55.077Z,44.60
2018-12-15T00:28:23.632Z,44.60
2018-12-15T00:30:52.213Z,44.50
2018-12-15T00:33:20.766Z,44.50
2018-12-15T00:35:49.563Z,44.50
2018-12-15T00:38:18.250Z,44.50
2018-12-15T00:40:46.806Z,44.50
2018-12-15T00:43:15.453Z,44.50
2018-12-15T00:45:44.464Z,44.50
2018-12-15T00:48:13.032Z,44.50
2018-12-15T00:50:41.614Z,44.50
2018-12-15T00:53:10.200Z,44.60
2018-12-15T00:55:38.774Z,44.50
2018-12-15T00:58:07.351Z,44.50
2018-12-15T01:00:35.903Z,44.60
2018-12-15T01:03:04.761Z,44.60
2018-12-15T01:05:33.332Z,44.50
2018-12-15T01:08:01.856Z,44.60
2018-12-15T01:10:30.463Z,44.40
2018-12-15T01:12:59.308Z,44.50
2018-12-15T01:15:33.169Z,44.50
2018-12-15T01:18:01.722Z,44.50
2018-12-15T01:20:30.313Z,44.50
2018-12-15T01:22:58.900Z,44.50
2018-12-15T01:25:27.485Z,44.50
2018-12-15T01:27:56.067Z,44.50
2018-12-15T01:30:24.648Z,44.50
2018-12-15T01:32:53.217Z,44.50
2018-12-15T01:35:21.780Z,44.50
2018-12-15T01:37:50.337Z,44.50
2018-12-15T01:40:18.928Z,44.60
2018-12-15T01:42:47.656Z,44.50
2018-12-15T01:45:16.651Z,44.50
2018-12-15T01:47:45.222Z,44.50
2018-12-15T01:50:13.790Z,44.50
2018-12-15T01:52:42.380Z,44.50
2018-12-15T01:55:10.983Z,44.60
2018-12-15T01:57:40.064Z,45.10
2018-12-15T02:00:09.317Z,44.50
2018-12-15T02:02:37.892Z,44.50
2018-12-15T02:05:06.486Z,44.50
2018-12-15T02:07:35.076Z,44.50
2018-12-15T02:10:04.022Z,44.50
2018-12-15T02:12:32.577Z,44.50
2018-12-15T02:15:01.189Z,44.50
2018-12-15T02:17:33.584Z,44.50
2018-12-15T02:20:00.457Z,44.50
2018-12-15T02:22:29.048Z,44.50
2018-12-15T02:24:57.609Z,45.10
2018-12-15T02:27:26.152Z,44.50
2018-12-15T02:29:54.740Z,44.50
2018-12-15T02:32:23.329Z,44.50
2018-12-15T02:34:51.908Z,44.50
2018-12-15T02:37:20.469Z,44.50
2018-12-15T02:39:49.035Z,44.50
2018-12-15T02:42:17.724Z,44.50
2018-12-15T02:44:46.310Z,44.50
2018-12-15T02:47:14.991Z,44.50
2018-12-15T02:49:43.548Z,44.40
2018-12-15T02:52:12.125Z,44.50
2018-12-15T02:54:40.688Z,44.50
2018-12-15T02:57:09.257Z,44.40
2018-12-15T02:59:37.826Z,44.50
2018-12-15T03:02:06.396Z,44.50
2018-12-15T03:04:34.981Z,44.50
2018-12-15T03:07:03.865Z,45.10
2018-12-15T03:09:32.428Z,44.50
2018-12-15T03:12:01.360Z,44.50
2018-12-15T03:14:30.025Z,44.50
2018-12-15T03:17:06.740Z,44.50
2018-12-15T03:19:35.425Z,44.50
2018-12-15T03:22:04.006Z,44.90
2018-12-15T03:24:32.614Z,44.50
2018-12-15T03:27:01.206Z,44.50
2018-12-15T03:29:29.789Z,44.50
2018-12-15T03:31:58.360Z,44.50
2018-12-15T03:34:27.029Z,44.50
2018-12-15T03:36:55.591Z,44.50
2018-12-15T03:39:24.157Z,44.50
2018-12-15T03:41:52.973Z,44.50
2018-12-15T03:44:21.617Z,44.40
2018-12-15T03:46:50.188Z,44.40
2018-12-15T03:49:18.761Z,44.50
2018-12-15T03:51:47.353Z,44.40
2018-12-15T03:54:15.901Z,44.40
2018-12-15T03:56:44.494Z,44.40
2018-12-15T03:59:13.053Z,44.40
2018-12-15T04:01:41.643Z,44.40
2018-12-15T04:04:10.192Z,44.20
2018-12-15T04:06:38.946Z,44.20
2018-12-15T04:09:07.980Z,44.20
2018-12-15T04:11:36.808Z,44.20
2018-12-15T04:14:05.468Z,44.20
2018-12-15T04:16:34.043Z,44.20
2018-12-15T04:19:02.600Z,44.20
2018-12-15T04:21:31.184Z,44.20
2018-12-15T04:23:59.885Z,44.20
2018-12-15T04:26:28.717Z,44.10
2018-12-15T04:28:57.230Z,44.10
2018-12-15T04:31:25.856Z,44.10
2018-12-15T04:33:54.409Z,44.00
2018-12-15T04:36:22.984Z,44.00
2018-12-15T04:38:51.561Z,44.00
2018-12-15T04:41:20.120Z,44.00
2018-12-15T04:43:49.038Z,44.60
2018-12-15T04:46:17.621Z,43.90
2018-12-15T04:48:46.176Z,43.90
2018-12-15T04:51:14.773Z,43.90
2018-12-15T04:53:43.436Z,43.90
2018-12-15T04:56:12.042Z,43.90
2018-12-15T04:58:40.672Z,43.90
2018-12-15T05:01:09.330Z,43.90
2018-12-15T05:03:37.903Z,43.90
2018-12-15T05:06:06.468Z,43.80
2018-12-15T05:08:35.025Z,43.90
2018-12-15T05:11:03.648Z,43.80
2018-12-15T05:13:32.204Z,43.80
2018-12-15T05:16:00.760Z,43.80
2018-12-15T05:18:29.347Z,43.80
2018-12-15T05:20:57.898Z,43.70
2018-12-15T05:23:26.607Z,43.80
2018-12-15T05:25:55.169Z,43.70
2018-12-15T05:28:23.715Z,43.70
2018-12-15T05:30:52.303Z,43.70
2018-12-15T05:33:20.860Z,43.70
2018-12-15T05:35:49.452Z,43.70
2018-12-15T05:38:18.037Z,43.70
2018-12-15T05:40:46.600Z,43.70
2018-12-15T05:43:15.190Z,43.70
2018-12-15T05:45:43.774Z,43.70
2018-12-15T05:48:12.347Z,43.80
2018-12-15T05:50:40.925Z,43.80
2018-12-15T05:53:09.476Z,43.80
2018-12-15T05:55:38.058Z,44.30
2018-12-15T05:58:06.605Z,43.80
2018-12-15T06:00:35.189Z,43.80
2018-12-15T06:03:03.739Z,43.80
2018-12-15T06:05:32.341Z,43.70
2018-12-15T06:08:00.936Z,43.80
2018-12-15T06:10:29.504Z,43.70
2018-12-15T06:12:58.065Z,43.80
2018-12-15T06:15:26.650Z,43.80
2018-12-15T06:17:55.211Z,43.80
2018-12-15T06:20:23.788Z,43.80
2018-12-15T06:22:52.367Z,43.90
2018-12-15T06:25:20.929Z,43.90
2018-12-15T06:27:49.512Z,44.00
2018-12-15T06:30:18.848Z,43.90
2018-12-15T06:32:47.419Z,43.90
2018-12-15T06:35:16.000Z,43.90
2018-12-15T06:37:44.541Z,44.00
2018-12-15T06:40:13.145Z,44.10
2018-12-15T06:42:41.717Z,44.00
2018-12-15T06:45:10.301Z,44.00
2018-12-15T06:47:38.849Z,44.00
2018-12-15T06:50:07.684Z,44.00
2018-12-15T06:52:36.277Z,44.10
2018-12-15T06:55:05.205Z,44.70
2018-12-15T06:57:33.785Z,44.10
2018-12-15T07:00:02.377Z,44.00
2018-12-15T07:02:31.027Z,44.00
2018-12-15T07:04:59.604Z,44.00
2018-12-15T07:07:28.177Z,44.10
2018-12-15T07:09:56.733Z,44.10
2018-12-15T07:12:25.304Z,44.10
2018-12-15T07:14:53.971Z,44.10
2018-12-15T07:17:22.573Z,44.10
2018-12-15T07:19:51.212Z,44.10
2018-12-15T07:22:19.767Z,44.10
2018-12-15T07:24:48.356Z,44.70
2018-12-15T07:27:16.909Z,44.20
2018-12-15T07:29:45.485Z,44.20
2018-12-15T07:32:14.069Z,44.20
2018-12-15T07:34:42.764Z,44.20
2018-12-15T07:37:11.423Z,44.20
2018-12-15T07:39:40.292Z,44.30
2018-12-15T07:42:08.877Z,44.30
2018-12-15T07:44:37.429Z,44.40
2018-12-15T07:47:05.991Z,44.40
2018-12-15T07:49:34.548Z,44.40
2018-12-15T07:52:03.122Z,44.40
2018-12-15T07:54:31.700Z,44.40
2018-12-15T07:57:00.261Z,44.50
2018-12-15T07:59:28.816Z,44.50
2018-12-15T08:01:57.404Z,44.60
2018-12-15T08:04:25.977Z,44.50
2018-12-15T08:06:54.540Z,44.60
2018-12-15T08:09:23.344Z,44.70
2018-12-15T08:11:57.184Z,44.70
2018-12-15T08:14:25.893Z,44.70
2018-12-15T08:16:54.472Z,45.40
2018-12-15T08:19:23.736Z,44.80
2018-12-15T08:21:52.331Z,44.80
2018-12-15T08:24:20.980Z,44.90
2018-12-15T08:26:49.621Z,44.90
2018-12-15T08:29:18.208Z,45.00
2018-12-15T08:31:46.784Z,45.00
2018-12-15T08:34:15.345Z,45.00
2018-12-15T08:36:43.924Z,45.10
2018-12-15T08:39:12.508Z,45.10
2018-12-15T08:41:41.109Z,45.10
2018-12-15T08:44:09.676Z,45.20
2018-12-15T08:46:38.256Z,45.20
2018-12-15T08:49:06.815Z,45.90
2018-12-15T08:51:35.432Z,45.30
2018-12-15T08:54:04.000Z,45.50
2018-12-15T08:56:34.387Z,45.40
2018-12-15T08:59:02.980Z,45.50
2018-12-15T09:01:31.561Z,45.50
2018-12-15T09:04:00.145Z,45.50
2018-12-15T09:06:28.712Z,45.50
2018-12-15T09:08:57.264Z,45.40
2018-12-15T09:11:25.844Z,45.50
2018-12-15T09:13:54.383Z,45.60
2018-12-15T09:16:26.418Z,45.50
2018-12-15T09:18:53.509Z,45.50
2018-12-15T09:21:22.089Z,45.50
2018-12-15T09:23:51.634Z,45.40
2018-12-15T09:26:20.235Z,45.50
2018-12-15T09:28:48.799Z,45.50
2018-12-15T09:31:17.344Z,45.40
2018-12-15T09:33:45.933Z,45.50
2018-12-15T09:36:14.504Z,45.50
2018-12-15T09:38:43.076Z,45.50
2018-12-15T09:41:11.931Z,45.50
2018-12-15T09:43:40.500Z,45.50
2018-12-15T09:46:09.073Z,45.50
2018-12-15T09:48:37.637Z,45.50
2018-12-15T09:51:06.212Z,45.90
2018-12-15T09:53:34.812Z,45.40
2018-12-15T09:56:03.384Z,45.30
2018-12-15T09:58:31.956Z,45.30
2018-12-15T10:01:00.549Z,45.30
2018-12-15T10:03:29.121Z,45.20
2018-12-15T10:05:57.708Z,45.20
2018-12-15T10:08:26.324Z,45.20
2018-12-15T10:10:54.917Z,45.10
2018-12-15T10:13:23.500Z,45.20
2018-12-15T10:15:52.160Z,45.10
2018-12-15T10:18:20.678Z,45.10
2018-12-15T10:20:49.305Z,45.10
2018-12-15T10:23:17.873Z,45.10
2018-12-15T10:25:46.445Z,45.10
2018-12-15T10:28:15.024Z,45.00
2018-12-15T10:30:48.940Z,45.00
2018-12-15T10:33:17.507Z,45.00
2018-12-15T10:35:46.100Z,45.10
2018-12-15T10:38:14.660Z,45.00
2018-12-15T10:40:43.220Z,45.00
2018-12-15T10:43:11.776Z,45.10
2018-12-15T10:45:40.341Z,45.10
2018-12-15T10:48:15.275Z,45.00
2018-12-15T10:50:43.837Z,45.10
2018-12-15T10:53:12.403Z,45.00
2018-12-15T10:55:41.104Z,45.00
2018-12-15T10:58:09.788Z,45.10
2018-12-15T11:00:43.743Z,45.00
2018-12-15T11:03:12.376Z,45.00
2018-12-15T11:05:40.942Z,45.00
2018-12-15T11:08:09.533Z,45.00
2018-12-15T11:10:38.112Z,45.00
2018-12-15T11:13:06.693Z,45.00
2018-12-15T11:15:35.292Z,45.00
2018-12-15T11:18:03.992Z,44.90
2018-12-15T11:20:32.569Z,44.90
2018-12-15T11:23:01.174Z,44.90
2018-12-15T11:25:29.777Z,44.90
2018-12-15T11:27:58.357Z,44.90
2018-12-15T11:30:26.949Z,44.90
2018-12-15T11:32:55.525Z,44.80
2018-12-15T11:35:24.092Z,44.90
2018-12-15T11:37:52.687Z,44.80
2018-12-15T11:40:21.552Z,44.80
2018-12-15T11:42:50.158Z,44.90
2018-12-15T11:45:18.736Z,44.80
2018-12-15T11:47:47.636Z,44.80
2018-12-15T11:50:16.241Z,44.80
2018-12-15T11:52:44.801Z,44.80
2018-12-15T11:55:13.380Z,44.80
2018-12-15T11:57:41.976Z,44.80
2018-12-15T12:00:10.596Z,44.90
2018-12-15T12:02:39.173Z,44.80
2018-12-15T12:05:07.988Z,44.90
2018-12-15T12:07:36.573Z,44.90
2018-12-15T12:10:05.694Z,44.90
2018-12-15T12:12:34.325Z,44.90
2018-12-15T12:15:02.905Z,44.90
2018-12-15T12:17:31.506Z,44.00
2018-12-15T12:20:00.185Z,44.00
2018-12-15T12:22:28.749Z,44.10
2018-12-15T12:24:57.344Z,44.10
2018-12-15T12:27:25.953Z,44.10
2018-12-15T12:29:54.521Z,44.00
2018-12-15T12:32:23.109Z,43.80
2018-12-15T12:34:51.672Z,43.80
2018-12-15T12:37:20.241Z,43.70
2018-12-15T12:39:48.832Z,43.60
2018-12-15T12:42:17.391Z,43.50
2018-12-15T12:44:45.964Z,43.40
2018-12-15T12:47:14.540Z,43.30
2018-12-15T12:49:43.412Z,43.10
2018-12-15T12:52:12.589Z,42.90
2018-12-15T12:54:41.184Z,42.80
2018-12-15T12:57:09.757Z,42.50
2018-12-15T12:59:38.332Z,42.40
2018-12-15T13:02:07.544Z,42.20
2018-12-15T13:04:36.235Z,42.00
2018-12-15T13:07:04.836Z,41.80
2018-12-15T13:09:33.433Z,41.50
2018-12-15T13:12:02.029Z,41.40
2018-12-15T13:17:23.848Z,41.10
2018-12-15T13:19:52.421Z,40.90
2018-12-15T13:22:22.814Z,40.90
2018-12-15T13:24:51.441Z,40.80
2018-12-15T13:27:20.032Z,40.60
2018-12-15T13:29:49.053Z,40.40
2018-12-15T13:32:17.652Z,40.40
2018-12-15T13:34:46.219Z,40.20
2018-12-15T13:37:14.929Z,40.20
2018-12-15T13:39:44.545Z,40.10
2018-12-15T13:42:13.949Z,40.10
2018-12-15T13:44:42.564Z,39.90
2018-12-15T13:47:11.191Z,39.90
2018-12-15T13:49:39.777Z,39.80
2018-12-15T13:52:08.339Z,39.80
2018-12-15T13:54:36.908Z,39.80
2018-12-15T13:57:05.500Z,39.60
2018-12-15T13:59:34.106Z,39.60
2018-12-15T14:02:02.668Z,39.60
2018-12-15T14:04:31.228Z,39.60
2018-12-15T14:06:59.824Z,39.50
2018-12-15T14:09:28.405Z,39.50
2018-12-15T14:11:56.992Z,39.50
2018-12-15T14:14:25.564Z,39.40
2018-12-15T14:16:54.140Z,39.40
2018-12-15T14:19:22.741Z,39.30
2018-12-15T14:21:51.309Z,39.30
2018-12-15T14:24:19.871Z,39.30
2018-12-15T14:26:48.476Z,39.30
2018-12-15T14:29:17.047Z,39.20
2018-12-15T14:31:45.623Z,39.10
2018-12-15T14:34:14.209Z,39.00
2018-12-15T14:36:42.773Z,38.90
2018-12-15T14:39:11.360Z,38.90
2018-12-15T14:41:39.919Z,38.80
2018-12-15T14:44:08.472Z,38.80
2018-12-15T14:46:37.466Z,38.70
2018-12-15T14:49:06.048Z,38.70
2018-12-15T14:51:34.605Z,38.60
2018-12-15T14:54:03.209Z,38.60
2018-12-15T14:56:31.773Z,38.60
2018-12-15T14:59:00.306Z,38.50
2018-12-15T15:01:29.412Z,38.30
2018-12-15T15:03:57.981Z,38.40
2018-12-15T15:06:26.557Z,38.30
2018-12-15T15:08:55.140Z,38.30
2018-12-15T15:11:23.704Z,38.30
2018-12-15T15:13:52.301Z,38.20
2018-12-15T15:16:20.937Z,38.20
2018-12-15T15:18:49.510Z,38.20
2018-12-15T15:21:18.084Z,38.20
2018-12-15T15:23:46.673Z,38.10
2018-12-15T15:26:15.288Z,38.10
2018-12-15T15:28:43.864Z,38.10
2018-12-15T15:31:12.429Z,38.10
2018-12-15T15:33:41.025Z,38.10
2018-12-15T15:36:09.609Z,38.10
2018-12-15T15:38:38.173Z,38.10
2018-12-15T15:41:06.783Z,38.10
2018-12-15T15:43:35.441Z,38.10
2018-12-15T15:46:04.040Z,38.00
2018-12-15T15:48:32.669Z,38.00
2018-12-15T15:51:01.350Z,38.00
2018-12-15T15:53:29.940Z,38.00
2018-12-15T15:55:59.313Z,38.00
2018-12-15T15:58:27.879Z,38.00
2018-12-15T16:00:56.558Z,38.00
2018-12-15T16:03:25.128Z,37.90
2018-12-15T16:05:53.845Z,37.80
2018-12-15T16:08:22.440Z,37.90
2018-12-15T16:10:51.026Z,37.90
2018-12-15T16:13:19.593Z,37.80
2018-12-15T16:15:48.213Z,37.90
2018-12-15T16:18:17.272Z,37.80
2018-12-15T16:20:45.872Z,37.80
2018-12-15T16:23:14.525Z,37.80
2018-12-15T16:25:46.833Z,37.90
2018-12-15T16:28:15.416Z,37.80
2018-12-15T16:30:44.031Z,37.90
2018-12-15T16:33:12.621Z,37.80
2018-12-15T16:35:41.189Z,37.90
2018-12-15T16:38:09.789Z,37.80
2018-12-15T16:40:38.359Z,37.90
2018-12-15T16:43:06.940Z,37.90
2018-12-15T16:45:35.525Z,38.00
2018-12-15T16:48:04.109Z,38.80
2018-12-15T16:50:32.699Z,38.90
2018-12-15T16:53:01.400Z,38.80
2018-12-15T16:55:30.321Z,38.80
2018-12-15T16:57:58.905Z,38.90
2018-12-15T17:00:27.475Z,38.90
2018-12-15T17:02:56.084Z,38.80
2018-12-15T17:05:24.664Z,38.90
2018-12-15T17:07:53.269Z,38.90
2018-12-15T17:10:21.833Z,38.90
2018-12-15T17:12:50.420Z,38.90
2018-12-15T17:15:19.008Z,38.80
2018-12-15T17:17:47.580Z,38.90
2018-12-15T17:20:16.301Z,38.90
2018-12-15T17:22:44.813Z,38.80
2018-12-15T17:25:13.693Z,39.00
2018-12-15T17:27:42.289Z,38.90
2018-12-15T17:30:11.399Z,38.90
2018-12-15T17:32:40.001Z,38.90
2018-12-15T17:35:08.718Z,38.90
2018-12-15T17:37:37.297Z,39.00
2018-12-15T17:40:07.714Z,38.90
2018-12-15T17:42:36.556Z,39.00
2018-12-15T17:45:06.182Z,38.90
2018-12-15T17:47:34.748Z,39.00
2018-12-15T17:50:03.641Z,38.90
2018-12-15T17:52:32.245Z,39.00
2018-12-15T17:55:00.841Z,39.00
2018-12-15T17:57:29.410Z,38.90
2018-12-15T17:59:58.045Z,39.00
2018-12-15T18:02:26.653Z,39.00
2018-12-15T18:04:55.240Z,39.00
2018-12-15T18:07:23.836Z,39.00
2018-12-15T18:09:52.422Z,38.90
2018-12-15T18:12:20.980Z,39.00
2018-12-15T18:14:49.539Z,39.00
2018-12-15T18:17:18.128Z,39.00
2018-12-15T18:19:46.688Z,39.00
2018-12-15T18:22:19.060Z,39.10
2018-12-15T18:24:47.628Z,39.00
2018-12-15T18:27:16.578Z,39.10
2018-12-15T18:29:45.173Z,39.10
2018-12-15T18:32:13.736Z,39.10
2018-12-15T18:34:42.292Z,39.10
2018-12-15T18:37:10.919Z,39.20
2018-12-15T18:39:39.495Z,39.10
2018-12-15T18:42:11.008Z,39.10
2018-12-15T18:44:38.660Z,39.20
2018-12-15T18:47:07.233Z,39.20
2018-12-15T18:49:35.819Z,39.20
2018-12-15T18:52:04.427Z,39.20
2018-12-15T18:54:33.125Z,39.20
2018-12-15T18:57:01.721Z,39.20
2018-12-15T18:59:30.517Z,39.20
2018-12-15T19:02:05.641Z,39.30
2018-12-15T19:04:34.308Z,39.20
2018-12-15T19:07:02.892Z,39.30
2018-12-15T19:09:31.459Z,39.40
2018-12-15T19:12:00.021Z,39.40
2018-12-15T19:14:28.620Z,39.30
2018-12-15T19:16:57.189Z,39.30
2018-12-15T19:19:25.768Z,39.40
2018-12-15T19:21:54.399Z,39.40
2018-12-15T19:24:22.983Z,39.30
2018-12-15T19:26:51.541Z,39.40
2018-12-15T19:29:20.132Z,39.40
2018-12-15T19:31:48.661Z,39.30
2018-12-15T19:34:17.696Z,39.50
2018-12-15T19:36:46.384Z,39.40
2018-12-15T19:39:15.264Z,39.40
2018-12-15T19:41:44.207Z,39.40
2018-12-15T19:44:12.792Z,39.40
2018-12-15T19:46:41.390Z,39.40
2018-12-15T19:49:09.948Z,39.50
2018-12-15T19:51:38.505Z,39.50
2018-12-15T19:54:07.092Z,39.50
2018-12-15T19:56:35.676Z,40.10
2018-12-15T19:59:04.242Z,40.00
2018-12-15T20:01:33.413Z,39.50
2018-12-15T20:04:01.965Z,39.50
2018-12-15T20:06:30.565Z,39.50
2018-12-15T20:08:59.138Z,39.50
2018-12-15T20:11:27.901Z,39.50
2018-12-15T20:13:56.502Z,39.50
2018-12-15T20:16:25.298Z,39.60
2018-12-15T20:18:53.984Z,39.60
2018-12-15T20:21:23.336Z,39.60
2018-12-15T20:23:54.861Z,39.60
2018-12-15T20:26:23.489Z,39.60
2018-12-15T20:28:52.072Z,39.60
2018-12-15T20:31:20.632Z,39.70
2018-12-15T20:33:49.200Z,39.70
2018-12-15T20:36:18.617Z,39.70
2018-12-15T20:38:47.204Z,39.70
2018-12-15T20:41:15.769Z,39.70
2018-12-15T20:43:44.324Z,39.60
2018-12-15T20:46:12.917Z,39.70
2018-12-15T20:48:41.490Z,39.70
2018-12-15T20:51:10.065Z,39.70
2018-12-15T20:53:38.627Z,39.70
2018-12-15T20:56:07.197Z,39.80
2018-12-15T20:58:35.764Z,39.80
2018-12-15T21:01:04.367Z,40.40
2018-12-15T21:03:32.949Z,39.70
2018-12-15T21:06:01.515Z,39.70
2018-12-15T21:08:30.365Z,39.80
2018-12-15T21:10:59.005Z,39.70
2018-12-15T21:13:27.561Z,39.80
2018-12-15T21:15:58.361Z,39.70
2018-12-15T21:18:27.108Z,39.70
2018-12-15T21:20:55.808Z,39.70
2018-12-15T21:23:24.376Z,39.70
2018-12-15T21:25:52.965Z,39.70
2018-12-15T21:28:21.544Z,39.80
2018-12-15T21:30:50.153Z,39.80
2018-12-15T21:33:18.770Z,39.80
2018-12-15T21:35:47.432Z,39.80
2018-12-15T21:38:15.985Z,39.80
2018-12-15T21:40:44.575Z,39.80
2018-12-15T21:43:14.048Z,39.80
2018-12-15T21:45:42.604Z,39.80
2018-12-15T21:48:11.561Z,39.70
2018-12-15T21:50:40.258Z,39.70
2018-12-15T21:53:09.136Z,39.70
2018-12-15T21:55:37.692Z,39.80
2018-12-15T21:58:06.295Z,39.80
2018-12-15T22:00:34.857Z,39.90
2018-12-15T22:03:04.172Z,39.80
2018-12-15T22:05:32.765Z,39.80
2018-12-15T22:08:01.325Z,39.80
2018-12-15T22:10:29.885Z,39.80
2018-12-15T22:12:58.481Z,39.90
2018-12-15T22:15:27.044Z,39.80
2018-12-15T22:17:55.612Z,39.90
2018-12-15T22:20:24.432Z,39.80
2018-12-15T22:22:53.000Z,39.80
2018-12-15T22:25:21.570Z,39.80
2018-12-15T22:27:50.157Z,39.80
2018-12-15T22:30:18.711Z,39.80
2018-12-15T22:32:47.399Z,39.80
2018-12-15T22:35:15.968Z,39.80
2018-12-15T22:37:44.528Z,39.80
2018-12-15T22:40:13.127Z,39.90
2018-12-15T22:42:41.723Z,39.90
2018-12-15T22:45:10.280Z,39.90
2018-12-15T22:47:38.848Z,39.80
2018-12-15T22:50:08.806Z,40.40
2018-12-15T22:52:37.378Z,39.80
2018-12-15T22:55:06.393Z,39.80
2018-12-15T22:57:34.976Z,39.80
2018-12-15T23:00:04.583Z,39.70
2018-12-15T23:02:33.143Z,39.80
2018-12-15T23:05:01.709Z,39.80
2018-12-15T23:07:30.303Z,39.80
2018-12-15T23:09:58.864Z,39.90
2018-12-15T23:12:27.748Z,39.90
2018-12-15T23:14:56.306Z,39.80
2018-12-15T23:17:24.872Z,39.80
2018-12-15T23:19:53.549Z,39.80
2018-12-15T23:22:22.116Z,39.80
2018-12-15T23:24:51.020Z,39.80
2018-12-15T23:27:19.580Z,39.80
2018-12-15T23:29:48.172Z,39.80
2018-12-15T23:32:16.752Z,39.80
2018-12-15T23:34:45.328Z,39.80
2018-12-15T23:37:13.925Z,39.80
2018-12-15T23:39:42.481Z,39.80
2018-12-15T23:42:11.105Z,39.80
2018-12-15T23:44:39.696Z,39.80
2018-12-15T23:47:08.277Z,39.80
2018-12-15T23:49:36.832Z,39.80
2018-12-15T23:52:05.436Z,39.80
2018-12-15T23:54:34.000Z,39.80
2018-12-15T23:57:02.705Z,39.80
2018-12-15T23:59:31.297Z,39.80
